»·PEaware :: N286WF KGCN-KBVU

N286WF :: KGCN-KBVU

FLIGHT INFORMATION

Flight Status: Arrived
Operator: Privately registered:
United States
More flights under this callsign
Pilot: Frank W. (16848)
Aircraft: Unknown
(P28U)
More flights by this aircraft type
Origin: KGCN Grand Canyon Natl Park
United States
Destination: KBVU Boulder City
United States
More flights between these airports :: More routes between these airports
Route: PGS
File this flight plan on PilotEdge
Remarks:
Altitude:
(Current/Filed)
8,500ft
Speed:
(Current/Filed)
140kts
Departed: 11-Sep-19 11:07 AM
Arrived: 11-Sep-19 12:22 PM
Distance/Time
Traveled:
131nm/1:15
Distance/Time
To Go:
Arrived

Flight Plot

Page will automatically refresh every two minutes.


Map Options




Map Legend


Flown Route
Filed Route
Departure Airport
Arrival Airport
Navaid (VOR, NDB)
Fix

Horizontal Profiles

Position Reports

Time Latitude Longitude Heading Altitude Ground
Speed
11-Sep-19 10:52 35.962224 -112.134733 220 6629ft 0kts
11-Sep-19 10:53 35.962224 -112.134733 220 6629ft 0kts
11-Sep-19 10:54 35.962224 -112.134733 220 6629ft 0kts
11-Sep-19 10:55 35.962224 -112.134733 220 6629ft 0kts
11-Sep-19 10:56 35.962224 -112.134733 220 6629ft 0kts
11-Sep-19 10:57 35.962223 -112.134734 220 6629ft 0kts
11-Sep-19 10:58 35.962223 -112.134734 220 6629ft 0kts
11-Sep-19 10:59 35.962223 -112.134734 220 6629ft 0kts
11-Sep-19 11:00 35.962223 -112.134734 220 6629ft 0kts
11-Sep-19 11:01 35.962223 -112.134734 220 6629ft 0kts
11-Sep-19 11:02 35.962223 -112.134734 220 6629ft 0kts
11-Sep-19 11:03 35.961866 -112.135164 219 6630ft 0kts
11-Sep-19 11:04 35.961562 -112.135474 219 6629ft 7kts
11-Sep-19 11:05 35.961402 -112.136544 255 6627ft 8kts
11-Sep-19 11:06 35.959494 -112.139445 220 6624ft 65kts
11-Sep-19 11:07 35.944327 -112.157806 221 7291ft 73kts
11-Sep-19 11:08 35.937309 -112.179814 264 7898ft 89kts
11-Sep-19 11:09 35.940673 -112.207453 238 8398ft 76kts
11-Sep-19 11:10 35.931031 -112.241309 249 8508ft 125kts
11-Sep-19 11:11 35.921465 -112.282639 249 8514ft 125kts
11-Sep-19 11:12 35.912009 -112.324068 249 8512ft 125kts
11-Sep-19 11:13 35.902219 -112.366177 250 8512ft 129kts
11-Sep-19 11:14 35.892496 -112.408919 249 8512ft 129kts
11-Sep-19 11:15 35.882574 -112.451852 248 8514ft 130kts
11-Sep-19 11:16 35.871767 -112.494498 244 8512ft 129kts
11-Sep-19 11:17 35.860709 -112.537115 249 8516ft 129kts
11-Sep-19 11:18 35.850666 -112.579751 249 8514ft 130kts
11-Sep-19 11:19 35.840709 -112.622453 249 8511ft 129kts
11-Sep-19 11:20 35.830760 -112.665045 249 8515ft 129kts
11-Sep-19 11:21 35.822683 -112.707774 251 8516ft 130kts
11-Sep-19 11:22 35.813300 -112.750798 248 8512ft 129kts
11-Sep-19 11:23 35.803133 -112.793795 249 8518ft 130kts
11-Sep-19 11:24 35.793103 -112.836654 248 8515ft 129kts
11-Sep-19 11:25 35.783006 -112.879734 248 8515ft 132kts
11-Sep-19 11:26 35.772846 -112.922946 249 8513ft 131kts
11-Sep-19 11:27 35.762600 -112.966493 249 8512ft 132kts
11-Sep-19 11:28 35.752294 -113.010159 249 8515ft 132kts
11-Sep-19 11:29 35.741930 -113.053885 249 8512ft 133kts
11-Sep-19 11:30 35.731502 -113.097910 250 8483ft 132kts
11-Sep-19 11:32 35.721208 -113.141418 250 8454ft 131kts
11-Sep-19 11:33 35.710982 -113.184377 251 8425ft 130kts
11-Sep-19 11:34 35.700823 -113.227092 251 8395ft 129kts
11-Sep-19 11:35 35.690685 -113.269635 252 8366ft 129kts
11-Sep-19 11:36 35.680579 -113.311993 252 8355ft 128kts
11-Sep-19 11:37 35.670521 -113.354099 252 8355ft 128kts
11-Sep-19 11:38 35.660445 -113.396135 252 8354ft 128kts
11-Sep-19 11:39 35.650342 -113.438269 251 8355ft 128kts
11-Sep-19 11:40 35.640203 -113.480365 252 8354ft 128kts
11-Sep-19 11:41 35.630088 -113.522306 252 8354ft 127kts
11-Sep-19 11:42 35.626160 -113.564562 310 8350ft 141kts
11-Sep-19 11:43 35.629749 -113.600551 233 8364ft 135kts
11-Sep-19 11:44 35.610172 -113.640047 243 8363ft 135kts
11-Sep-19 11:45 35.594167 -113.681475 245 8366ft 135kts
11-Sep-19 11:46 35.578822 -113.723662 245 8366ft 133kts
11-Sep-19 11:47 35.563850 -113.765257 245 8365ft 133kts
11-Sep-19 11:48 35.548843 -113.807055 245 8365ft 133kts
11-Sep-19 11:49 35.546129 -113.850271 287 8365ft 136kts
11-Sep-19 11:50 35.561747 -113.893176 291 8365ft 137kts
11-Sep-19 11:50 35.575586 -113.928228 291 8365ft 137kts
11-Sep-19 11:52 35.595311 -113.977321 292 8365ft 137kts
11-Sep-19 11:53 35.620272 -113.961066 112 8351ft 155kts
11-Sep-19 11:53 35.596880 -113.929515 135 8365ft 150kts
11-Sep-19 11:55 35.563977 -113.919140 265 8351ft 134kts
11-Sep-19 11:56 35.582594 -113.959657 288 8365ft 136kts
11-Sep-19 11:56 35.591462 -113.996988 279 8365ft 136kts
11-Sep-19 11:57 35.598200 -114.042605 276 8365ft 135kts
11-Sep-19 11:58 35.603899 -114.088273 275 8365ft 135kts
11-Sep-19 11:59 35.611022 -114.133426 295 8362ft 138kts
11-Sep-19 12:00 35.631424 -114.173790 298 8365ft 138kts
11-Sep-19 12:01 35.652390 -114.213403 299 8364ft 138kts
11-Sep-19 12:02 35.673434 -114.252486 300 8360ft 128kts
11-Sep-19 12:03 35.693857 -114.285395 304 8351ft 117kts
11-Sep-19 12:04 35.714877 -114.315925 306 8340ft 116kts
11-Sep-19 12:05 35.736968 -114.345648 309 8330ft 117kts
11-Sep-19 12:06 35.759510 -114.373260 312 7876ft 114kts
11-Sep-19 12:07 35.783381 -114.400162 313 7143ft 114kts
11-Sep-19 12:08 35.807027 -114.426575 312 6449ft 115kts
11-Sep-19 12:09 35.806306 -114.460004 281 5805ft 106kts
11-Sep-19 12:10 35.815250 -114.493187 280 5321ft 96kts
11-Sep-19 12:11 35.813460 -114.527016 273 5125ft 122kts
11-Sep-19 12:12 35.826673 -114.563309 295 5529ft 113kts
11-Sep-19 12:13 35.837323 -114.599181 297 5961ft 139kts
11-Sep-19 12:14 35.856987 -114.641761 300 5898ft 144kts
11-Sep-19 12:15 35.879718 -114.684192 298 5475ft 148kts
11-Sep-19 12:16 35.900666 -114.725811 299 4732ft 132kts
11-Sep-19 12:17 35.919285 -114.764306 308 3736ft 127kts
11-Sep-19 12:18 35.940808 -114.796106 307 3108ft 113kts
11-Sep-19 12:19 35.945050 -114.830268 246 2705ft 88kts
11-Sep-19 12:20 35.945644 -114.856202 278 2206ft 54kts
11-Sep-19 12:21 35.948324 -114.860365 99 2206ft 7kts
11-Sep-19 12:22 35.947409 -114.853825 100 2206ft 20kts
11-Sep-19 12:23 35.947871 -114.853484 183 2206ft 2kts
11-Sep-19 12:24 35.947851 -114.853487 190 2206ft 0kts
11-Sep-19 12:25 35.947851 -114.853487 190 2206ft 0kts
11-Sep-19 12:26 35.947851 -114.853487 190 2206ft 0kts
11-Sep-19 12:27 35.947851 -114.853487 190 2206ft 0kts
11-Sep-19 12:28 35.947851 -114.853487 190 2206ft 0kts
11-Sep-19 12:29 35.947851 -114.853487 190 2206ft 0kts
11-Sep-19 12:30 35.947851 -114.853487 190 2206ft 0kts
11-Sep-19 12:31 35.947851 -114.853487 190 2206ft 0kts
11-Sep-19 12:32 35.947851 -114.853487 190 2206ft 0kts
11-Sep-19 12:33 35.947851 -114.853487 190 2206ft 0kts
11-Sep-19 12:34 35.947851 -114.853487 190 2206ft 0kts
11-Sep-19 12:35 35.947851 -114.853487 190 2206ft 0kts

Navigation Log

Ident Type
Flight plan parsing failed, navigation log unavailable